Terminal Aerodrome Forecast
Issued by NWS

Home | Current Version | Previous Version | Text Only | Print | Product List | Glossary On
Versions: 1 2 3 4 5 6 7 8 9 10 11 12
685
FTUS45 KPIH 200520
TAFSUN
TAF
KSUN 200520Z 2006/2112 31011KT P6SM SCT080 BKN180
     FM201100 31010KT P6SM VCSH SCT040 BKN080
     FM201300 VRB06KT 6SM -SHRA SCT012 OVC025
     FM201900 25018G28KT P6SM VCSH SCT025 OVC050
     FM210400 31010KT P6SM SCT050
      AMD LTD TO CLD VIS AND WIND TIL 201300=

USA.gov is the U.S. government's official web portal to all federal, state and local government web resources and services.